sensor_id;sensor_type;location;lat;lon;timestamp;pressure;altitude;pressure_sealevel;temperature;humidity
59531;BME280;45349;48.692;8.186;2023-01-28T00:01:04;99245.50;;;0.27;82.09
59531;BME280;45349;48.692;8.186;2023-01-28T00:03:32;99249.38;;;0.17;82.79
59531;BME280;45349;48.692;8.186;2023-01-28T00:06:03;99239.97;;;0.17;83.04
59531;BME280;45349;48.692;8.186;2023-01-28T00:08:30;99245.28;;;0.12;81.61
59531;BME280;45349;48.692;8.186;2023-01-28T00:10:58;99236.81;;;0.10;82.32
59531;BME280;45349;48.692;8.186;2023-01-28T00:13:26;99243.28;;;0.00;82.98
59531;BME280;45349;48.692;8.186;2023-01-28T00:15:56;99240.00;;;-0.04;83.93
59531;BME280;45349;48.692;8.186;2023-01-28T00:18:23;99233.63;;;-0.14;84.33
59531;BME280;45349;48.692;8.186;2023-01-28T00:20:59;99238.25;;;-0.22;84.87
59531;BME280;45349;48.692;8.186;2023-01-28T00:23:26;99231.72;;;-0.30;84.56
59531;BME280;45349;48.692;8.186;2023-01-28T00:25:53;99230.53;;;-0.41;85.41
59531;BME280;45349;48.692;8.186;2023-01-28T00:28:20;99231.41;;;-0.62;86.33
59531;BME280;45349;48.692;8.186;2023-01-28T00:30:47;99236.53;;;-0.62;86.97
59531;BME280;45349;48.692;8.186;2023-01-28T00:33:13;99230.03;;;-0.70;87.00
59531;BME280;45349;48.692;8.186;2023-01-28T00:35:40;99229.91;;;-0.67;86.52
59531;BME280;45349;48.692;8.186;2023-01-28T00:38:08;99239.13;;;-0.84;87.72
59531;BME280;45349;48.692;8.186;2023-01-28T00:40:35;99237.03;;;-0.95;89.08
59531;BME280;45349;48.692;8.186;2023-01-28T00:43:01;99227.78;;;-0.99;89.87
59531;BME280;45349;48.692;8.186;2023-01-28T00:45:28;99229.94;;;-1.10;90.00
59531;BME280;45349;48.692;8.186;2023-01-28T00:47:54;99232.84;;;-1.18;90.52
59531;BME280;45349;48.692;8.186;2023-01-28T00:50:21;99229.53;;;-1.22;91.78
59531;BME280;45349;48.692;8.186;2023-01-28T00:52:48;99243.38;;;-1.26;92.06
59531;BME280;45349;48.692;8.186;2023-01-28T00:55:15;99232.72;;;-1.37;91.78
59531;BME280;45349;48.692;8.186;2023-01-28T00:57:42;99245.41;;;-1.34;92.65
59531;BME280;45349;48.692;8.186;2023-01-28T01:00:10;99238.84;;;-1.19;91.91
59531;BME280;45349;48.692;8.186;2023-01-28T01:02:37;99246.16;;;-1.10;90.96
59531;BME280;45349;48.692;8.186;2023-01-28T01:05:04;99241.16;;;-0.92;90.28
59531;BME280;45349;48.692;8.186;2023-01-28T01:07:31;99248.63;;;-0.86;89.61
59531;BME280;45349;48.692;8.186;2023-01-28T01:09:59;99241.69;;;-0.84;89.57
59531;BME280;45349;48.692;8.186;2023-01-28T01:12:27;99243.34;;;-0.83;90.10
59531;BME280;45349;48.692;8.186;2023-01-28T01:14:54;99248.09;;;-0.73;89.60
59531;BME280;45349;48.692;8.186;2023-01-28T01:17:22;99251.06;;;-0.62;89.63
59531;BME280;45349;48.692;8.186;2023-01-28T01:19:48;99250.88;;;-0.57;89.73
59531;BME280;45349;48.692;8.186;2023-01-28T01:22:15;99251.19;;;-0.45;89.05
59531;BME280;45349;48.692;8.186;2023-01-28T01:24:42;99251.75;;;-0.38;88.07
59531;BME280;45349;48.692;8.186;2023-01-28T01:27:08;99244.69;;;-0.33;87.32
59531;BME280;45349;48.692;8.186;2023-01-28T01:29:36;99256.44;;;-0.27;86.51
59531;BME280;45349;48.692;8.186;2023-01-28T01:32:05;99258.25;;;-0.10;85.68
59531;BME280;45349;48.692;8.186;2023-01-28T01:34:32;99261.31;;;-0.02;86.33
59531;BME280;45349;48.692;8.186;2023-01-28T01:36:59;99261.31;;;-0.02;85.39
59531;BME280;45349;48.692;8.186;2023-01-28T01:39:25;99262.06;;;0.01;84.96
59531;BME280;45349;48.692;8.186;2023-01-28T01:41:52;99265.63;;;-0.02;85.91
59531;BME280;45349;48.692;8.186;2023-01-28T01:47:36;99265.31;;;0.04;85.37
59531;BME280;45349;48.692;8.186;2023-01-28T01:50:10;99260.13;;;0.06;85.15
59531;BME280;45349;48.692;8.186;2023-01-28T01:52:39;99252.22;;;0.10;84.79
59531;BME280;45349;48.692;8.186;2023-01-28T01:55:11;99258.97;;;0.13;84.55
59531;BME280;45349;48.692;8.186;2023-01-28T01:57:38;99256.31;;;0.14;84.46
59531;BME280;45349;48.692;8.186;2023-01-28T02:00:08;99245.09;;;0.17;83.13
59531;BME280;45349;48.692;8.186;2023-01-28T02:02:45;99244.09;;;0.20;82.90
59531;BME280;45349;48.692;8.186;2023-01-28T02:05:16;99247.44;;;0.22;83.41
59531;BME280;45349;48.692;8.186;2023-01-28T02:07:44;99253.56;;;0.19;84.09
59531;BME280;45349;48.692;8.186;2023-01-28T02:10:12;99245.84;;;0.19;84.09
59531;BME280;45349;48.692;8.186;2023-01-28T02:12:43;99251.81;;;0.20;83.51
59531;BME280;45349;48.692;8.186;2023-01-28T02:15:13;99247.56;;;0.19;83.36
59531;BME280;45349;48.692;8.186;2023-01-28T02:17:43;99243.06;;;0.24;83.48
59531;BME280;45349;48.692;8.186;2023-01-28T02:20:12;99250.75;;;0.24;83.56
59531;BME280;45349;48.692;8.186;2023-01-28T02:22:51;99250.75;;;0.24;83.59
59531;BME280;45349;48.692;8.186;2023-01-28T02:26:11;99248.28;;;0.22;84.63
59531;BME280;45349;48.692;8.186;2023-01-28T02:28:46;99258.91;;;0.34;82.83
59531;BME280;45349;48.692;8.186;2023-01-28T02:31:18;99258.69;;;0.38;82.55
59531;BME280;45349;48.692;8.186;2023-01-28T02:33:53;99259.03;;;0.31;83.43
59531;BME280;45349;48.692;8.186;2023-01-28T02:36:27;99265.84;;;0.32;82.56
59531;BME280;45349;48.692;8.186;2023-01-28T02:38:58;99255.56;;;0.32;82.69
59531;BME280;45349;48.692;8.186;2023-01-28T02:41:28;99268.53;;;0.28;82.88
59531;BME280;45349;48.692;8.186;2023-01-28T02:44:00;99264.09;;;0.32;83.48
59531;BME280;45349;48.692;8.186;2023-01-28T02:46:34;99265.47;;;0.39;82.87
59531;BME280;45349;48.692;8.186;2023-01-28T02:49:22;99264.81;;;0.36;84.04
59531;BME280;45349;48.692;8.186;2023-01-28T02:55:17;99267.16;;;0.40;84.09
59531;BME280;45349;48.692;8.186;2023-01-28T02:57:59;99265.97;;;0.48;83.34
59531;BME280;45349;48.692;8.186;2023-01-28T03:00:33;99261.72;;;0.47;82.00
59531;BME280;45349;48.692;8.186;2023-01-28T03:03:13;99258.25;;;0.48;82.51
59531;BME280;45349;48.692;8.186;2023-01-28T03:05:45;99266.19;;;0.43;83.34
59531;BME280;45349;48.692;8.186;2023-01-28T03:08:35;99269.72;;;0.40;83.59
59531;BME280;45349;48.692;8.186;2023-01-28T03:11:22;99269.72;;;0.40;83.99
59531;BME280;45349;48.692;8.186;2023-01-28T03:14:08;99261.59;;;0.50;83.67
59531;BME280;45349;48.692;8.186;2023-01-28T03:16:56;99269.44;;;0.47;84.39
59531;BME280;45349;48.692;8.186;2023-01-28T03:19:42;99266.88;;;0.47;83.18
59531;BME280;45349;48.692;8.186;2023-01-28T03:22:28;99268.38;;;0.51;82.94
59531;BME280;45349;48.692;8.186;2023-01-28T03:25:18;99266.94;;;0.45;83.81
59531;BME280;45349;48.692;8.186;2023-01-28T03:28:07;99273.66;;;0.48;83.71
59531;BME280;45349;48.692;8.186;2023-01-28T03:31:02;99271.63;;;0.54;84.57
59531;BME280;45349;48.692;8.186;2023-01-28T03:33:53;99277.28;;;0.43;84.01
59531;BME280;45349;48.692;8.186;2023-01-28T03:36:38;99272.91;;;0.46;84.20
59531;BME280;45349;48.692;8.186;2023-01-28T03:39:47;99276.94;;;0.51;83.16
59531;BME280;45349;48.692;8.186;2023-01-28T03:42:14;99285.19;;;0.58;82.85
59531;BME280;45349;48.692;8.186;2023-01-28T03:45:12;99277.09;;;0.48;83.28
59531;BME280;45349;48.692;8.186;2023-01-28T03:47:39;99274.66;;;0.45;83.06
59531;BME280;45349;48.692;8.186;2023-01-28T03:50:10;99279.97;;;0.40;84.15
59531;BME280;45349;48.692;8.186;2023-01-28T03:52:46;99277.38;;;0.42;84.79
59531;BME280;45349;48.692;8.186;2023-01-28T03:55:27;99285.88;;;0.42;84.24
59531;BME280;45349;48.692;8.186;2023-01-28T03:57:53;99289.06;;;0.48;84.08
59531;BME280;45349;48.692;8.186;2023-01-28T04:00:20;99293.03;;;0.55;83.84
59531;BME280;45349;48.692;8.186;2023-01-28T04:02:48;99294.84;;;0.53;83.43
59531;BME280;45349;48.692;8.186;2023-01-28T04:05:18;99293.09;;;0.53;83.71
59531;BME280;45349;48.692;8.186;2023-01-28T04:07:49;99297.69;;;0.47;84.76
59531;BME280;45349;48.692;8.186;2023-01-28T04:10:27;99295.13;;;0.47;85.66
59531;BME280;45349;48.692;8.186;2023-01-28T04:13:00;99302.06;;;0.44;86.16
59531;BME280;45349;48.692;8.186;2023-01-28T04:15:27;99292.56;;;0.47;85.33
59531;BME280;45349;48.692;8.186;2023-01-28T04:17:55;99297.53;;;0.50;85.58
59531;BME280;45349;48.692;8.186;2023-01-28T04:20:30;99295.84;;;0.50;84.87
59531;BME280;45349;48.692;8.186;2023-01-28T04:22:58;99298.84;;;0.58;83.76
59531;BME280;45349;48.692;8.186;2023-01-28T04:25:25;99294.19;;;0.67;83.90
59531;BME280;45349;48.692;8.186;2023-01-28T04:27:52;99302.28;;;0.59;83.81
59531;BME280;45349;48.692;8.186;2023-01-28T04:33:00;99307.31;;;0.61;84.19
59531;BME280;45349;48.692;8.186;2023-01-28T04:35:44;99307.88;;;0.67;83.90
59531;BME280;45349;48.692;8.186;2023-01-28T04:38:31;99305.66;;;0.59;83.48
59531;BME280;45349;48.692;8.186;2023-01-28T04:41:07;99302.75;;;0.67;83.94
59531;BME280;45349;48.692;8.186;2023-01-28T04:43:34;99306.13;;;0.68;83.97
59531;BME280;45349;48.692;8.186;2023-01-28T04:46:20;99314.59;;;0.70;83.89
59531;BME280;45349;48.692;8.186;2023-01-28T04:48:54;99308.84;;;0.65;84.05
59531;BME280;45349;48.692;8.186;2023-01-28T04:51:39;99319.22;;;0.63;85.91
59531;BME280;45349;48.692;8.186;2023-01-28T04:54:26;99312.31;;;0.64;85.72
59531;BME280;45349;48.692;8.186;2023-01-28T04:56:56;99308.69;;;0.68;86.02
59531;BME280;45349;48.692;8.186;2023-01-28T04:59:23;99316.69;;;0.62;87.51
59531;BME280;45349;48.692;8.186;2023-01-28T05:01:50;99321.56;;;0.68;86.81
59531;BME280;45349;48.692;8.186;2023-01-28T05:04:18;99316.84;;;0.58;88.95
59531;BME280;45349;48.692;8.186;2023-01-28T05:06:47;99314.06;;;0.63;89.20
59531;BME280;45349;48.692;8.186;2023-01-28T05:09:17;99315.94;;;0.59;89.31
59531;BME280;45349;48.692;8.186;2023-01-28T05:11:44;99319.34;;;0.60;89.78
59531;BME280;45349;48.692;8.186;2023-01-28T05:14:12;99317.53;;;0.62;90.09
59531;BME280;45349;48.692;8.186;2023-01-28T05:16:43;99324.34;;;0.63;90.27
59531;BME280;45349;48.692;8.186;2023-01-28T05:19:10;99324.34;;;0.63;90.77
59531;BME280;45349;48.692;8.186;2023-01-28T05:21:41;99321.00;;;0.61;90.79
59531;BME280;45349;48.692;8.186;2023-01-28T05:24:18;99320.88;;;0.64;92.35
59531;BME280;45349;48.692;8.186;2023-01-28T05:26:45;99324.53;;;0.58;92.18
59531;BME280;45349;48.692;8.186;2023-01-28T05:29:12;99333.09;;;0.59;92.53
59531;BME280;45349;48.692;8.186;2023-01-28T05:31:39;99329.47;;;0.63;93.33
59531;BME280;45349;48.692;8.186;2023-01-28T05:34:05;99323.78;;;0.56;93.37
59531;BME280;45349;48.692;8.186;2023-01-28T05:36:32;99322.81;;;0.59;93.54
59531;BME280;45349;48.692;8.186;2023-01-28T05:39:05;99324.53;;;0.58;94.07
59531;BME280;45349;48.692;8.186;2023-01-28T05:41:33;99328.09;;;0.56;94.23
59531;BME280;45349;48.692;8.186;2023-01-28T05:44:01;99320.00;;;0.46;95.16
59531;BME280;45349;48.692;8.186;2023-01-28T05:46:51;99328.50;;;0.47;95.39
59531;BME280;45349;48.692;8.186;2023-01-28T05:49:36;99330.13;;;0.49;96.02
59531;BME280;45349;48.692;8.186;2023-01-28T05:52:10;99334.41;;;0.49;95.86
59531;BME280;45349;48.692;8.186;2023-01-28T05:54:37;99334.34;;;0.50;95.59
59531;BME280;45349;48.692;8.186;2023-01-28T05:57:06;99338.78;;;0.47;96.18
59531;BME280;45349;48.692;8.186;2023-01-28T05:59:33;99336.94;;;0.50;96.19
59531;BME280;45349;48.692;8.186;2023-01-28T06:02:00;99344.69;;;0.49;95.82
59531;BME280;45349;48.692;8.186;2023-01-28T06:04:26;99348.28;;;0.44;96.07
59531;BME280;45349;48.692;8.186;2023-01-28T06:06:53;99353.25;;;0.49;96.80
59531;BME280;45349;48.692;8.186;2023-01-28T06:09:21;99351.56;;;0.48;96.19
59531;BME280;45349;48.692;8.186;2023-01-28T06:11:49;99358.56;;;0.44;96.52
59531;BME280;45349;48.692;8.186;2023-01-28T06:14:18;99358.38;;;0.49;96.86
59531;BME280;45349;48.692;8.186;2023-01-28T06:17:04;99368.09;;;0.42;97.12
59531;BME280;45349;48.692;8.186;2023-01-28T06:19:39;99372.25;;;0.45;97.16
59531;BME280;45349;48.692;8.186;2023-01-28T06:22:07;99373.31;;;0.41;97.93
59531;BME280;45349;48.692;8.186;2023-01-28T06:24:34;99383.44;;;0.44;98.83
59531;BME280;45349;48.692;8.186;2023-01-28T06:27:00;99376.56;;;0.44;98.22
59531;BME280;45349;48.692;8.186;2023-01-28T06:29:28;99375.59;;;0.47;98.79
59531;BME280;45349;48.692;8.186;2023-01-28T06:31:55;99382.25;;;0.51;97.61
59531;BME280;45349;48.692;8.186;2023-01-28T06:34:21;99386.28;;;0.57;97.27
59531;BME280;45349;48.692;8.186;2023-01-28T06:36:48;99384.75;;;0.53;96.67
59531;BME280;45349;48.692;8.186;2023-01-28T06:39:17;99392.09;;;0.61;96.87
59531;BME280;45349;48.692;8.186;2023-01-28T06:41:45;99389.66;;;0.57;96.19
59531;BME280;45349;48.692;8.186;2023-01-28T06:44:12;99395.84;;;0.53;96.75
59531;BME280;45349;48.692;8.186;2023-01-28T06:46:40;99394.94;;;0.54;96.80
59531;BME280;45349;48.692;8.186;2023-01-28T06:49:07;99395.66;;;0.58;95.93
59531;BME280;45349;48.692;8.186;2023-01-28T06:51:33;99400.56;;;0.63;95.60
59531;BME280;45349;48.692;8.186;2023-01-28T06:54:00;99402.34;;;0.62;95.37
59531;BME280;45349;48.692;8.186;2023-01-28T06:56:27;99400.72;;;0.59;95.29
59531;BME280;45349;48.692;8.186;2023-01-28T06:58:53;99403.91;;;0.65;94.73
59531;BME280;45349;48.692;8.186;2023-01-28T07:01:20;99393.59;;;0.66;94.48
59531;BME280;45349;48.692;8.186;2023-01-28T07:03:48;99391.16;;;0.63;94.82
59531;BME280;45349;48.692;8.186;2023-01-28T07:06:14;99388.63;;;0.62;95.47
59531;BME280;45349;48.692;8.186;2023-01-28T07:08:41;99399.81;;;0.61;96.03
59531;BME280;45349;48.692;8.186;2023-01-28T07:11:07;99398.22;;;0.58;96.04
59531;BME280;45349;48.692;8.186;2023-01-28T07:13:34;99396.56;;;0.57;95.58
59531;BME280;45349;48.692;8.186;2023-01-28T07:16:01;99398.28;;;0.56;95.48
59531;BME280;45349;48.692;8.186;2023-01-28T07:18:28;99399.03;;;0.58;95.61
59531;BME280;45349;48.692;8.186;2023-01-28T07:20:56;99412.66;;;0.61;95.77
59531;BME280;45349;48.692;8.186;2023-01-28T07:23:23;99409.00;;;0.66;95.15
59531;BME280;45349;48.692;8.186;2023-01-28T07:25:49;99418.44;;;0.66;95.07
59531;BME280;45349;48.692;8.186;2023-01-28T07:28:16;99415.59;;;0.72;94.24
59531;BME280;45349;48.692;8.186;2023-01-28T07:30:47;99412.25;;;0.70;94.23
59531;BME280;45349;48.692;8.186;2023-01-28T07:33:13;99421.56;;;0.72;95.03
59531;BME280;45349;48.692;8.186;2023-01-28T07:35:40;99421.31;;;0.79;92.32
59531;BME280;45349;48.692;8.186;2023-01-28T07:38:08;99429.69;;;0.82;93.98
59531;BME280;45349;48.692;8.186;2023-01-28T07:40:34;99420.75;;;0.91;93.58
59531;BME280;45349;48.692;8.186;2023-01-28T07:43:01;99417.56;;;0.86;92.82
59531;BME280;45349;48.692;8.186;2023-01-28T07:45:35;99422.56;;;0.89;92.51
59531;BME280;45349;48.692;8.186;2023-01-28T07:48:04;99420.19;;;1.03;91.70
59531;BME280;45349;48.692;8.186;2023-01-28T07:50:32;99428.69;;;1.06;91.84
59531;BME280;45349;48.692;8.186;2023-01-28T07:53:02;99430.88;;;1.13;89.44
59531;BME280;45349;48.692;8.186;2023-01-28T07:55:30;99440.25;;;1.14;90.63
59531;BME280;45349;48.692;8.186;2023-01-28T07:58:00;99435.25;;;1.11;90.89
59531;BME280;45349;48.692;8.186;2023-01-28T08:00:29;99433.81;;;1.06;91.84
59531;BME280;45349;48.692;8.186;2023-01-28T08:02:58;99446.66;;;1.06;92.70
59531;BME280;45349;48.692;8.186;2023-01-28T08:05:25;99437.88;;;1.10;92.00
59531;BME280;45349;48.692;8.186;2023-01-28T08:07:54;99447.06;;;1.15;91.38
59531;BME280;45349;48.692;8.186;2023-01-28T08:10:20;99445.88;;;1.23;89.53
59531;BME280;45349;48.692;8.186;2023-01-28T08:12:52;99450.41;;;1.17;90.48
59531;BME280;45349;48.692;8.186;2023-01-28T08:15:19;99447.31;;;1.28;89.52
59531;BME280;45349;48.692;8.186;2023-01-28T08:17:45;99449.91;;;1.28;87.94
59531;BME280;45349;48.692;8.186;2023-01-28T08:20:12;99448.59;;;1.20;89.52
59531;BME280;45349;48.692;8.186;2023-01-28T08:22:39;99455.56;;;1.17;88.99
59531;BME280;45349;48.692;8.186;2023-01-28T08:25:06;99452.84;;;1.21;89.34
59531;BME280;45349;48.692;8.186;2023-01-28T08:27:33;99450.13;;;1.24;89.03
59531;BME280;45349;48.692;8.186;2023-01-28T08:30:01;99459.28;;;1.29;89.82
59531;BME280;45349;48.692;8.186;2023-01-28T08:32:28;99468.09;;;1.43;89.59
59531;BME280;45349;48.692;8.186;2023-01-28T08:34:55;99469.56;;;1.49;89.14
59531;BME280;45349;48.692;8.186;2023-01-28T08:37:21;99466.72;;;1.55;88.52
59531;BME280;45349;48.692;8.186;2023-01-28T08:39:48;99466.84;;;1.52;87.45
59531;BME280;45349;48.692;8.186;2023-01-28T08:42:15;99462.75;;;1.65;87.30
59531;BME280;45349;48.692;8.186;2023-01-28T08:44:42;99456.94;;;1.61;87.50
59531;BME280;45349;48.692;8.186;2023-01-28T08:47:10;99464.53;;;1.65;87.99
59531;BME280;45349;48.692;8.186;2023-01-28T08:49:36;99474.72;;;1.66;87.72
59531;BME280;45349;48.692;8.186;2023-01-28T08:52:03;99475.56;;;1.67;87.67
59531;BME280;45349;48.692;8.186;2023-01-28T08:54:30;99472.66;;;1.55;86.47
59531;BME280;45349;48.692;8.186;2023-01-28T08:56:56;99483.09;;;1.52;86.72
59531;BME280;45349;48.692;8.186;2023-01-28T08:59:23;99483.97;;;1.33;88.60
59531;BME280;45349;48.692;8.186;2023-01-28T09:01:49;99482.16;;;1.36;86.90
59531;BME280;45349;48.692;8.186;2023-01-28T09:04:20;99490.34;;;1.44;87.50
59531;BME280;45349;48.692;8.186;2023-01-28T09:06:46;99483.59;;;1.60;87.35
59531;BME280;45349;48.692;8.186;2023-01-28T09:09:13;99489.13;;;1.70;86.07
59531;BME280;45349;48.692;8.186;2023-01-28T09:11:39;99490.06;;;1.87;86.30
59531;BME280;45349;48.692;8.186;2023-01-28T09:14:06;99497.75;;;2.06;84.01
59531;BME280;45349;48.692;8.186;2023-01-28T09:16:33;99491.34;;;2.13;83.80
59531;BME280;45349;48.692;8.186;2023-01-28T09:18:59;99493.41;;;2.06;83.42
59531;BME280;45349;48.692;8.186;2023-01-28T09:21:27;99496.59;;;2.12;83.55
59531;BME280;45349;48.692;8.186;2023-01-28T09:23:54;99500.91;;;2.29;82.72
59531;BME280;45349;48.692;8.186;2023-01-28T09:26:22;99503.84;;;2.03;82.62
59531;BME280;45349;48.692;8.186;2023-01-28T09:28:49;99502.94;;;2.04;83.10
59531;BME280;45349;48.692;8.186;2023-01-28T09:31:15;99498.03;;;2.17;82.34
59531;BME280;45349;48.692;8.186;2023-01-28T09:33:42;99506.13;;;2.27;82.38
59531;BME280;45349;48.692;8.186;2023-01-28T09:36:10;99500.00;;;2.30;82.46
59531;BME280;45349;48.692;8.186;2023-01-28T09:38:38;99495.28;;;2.20;82.23
59531;BME280;45349;48.692;8.186;2023-01-28T09:41:23;99513.72;;;2.30;81.61
59531;BME280;45349;48.692;8.186;2023-01-28T09:44:02;99524.47;;;2.21;81.99
59531;BME280;45349;48.692;8.186;2023-01-28T09:46:32;99514.84;;;2.25;82.34
59531;BME280;45349;48.692;8.186;2023-01-28T09:49:02;99519.78;;;2.29;80.95
59531;BME280;45349;48.692;8.186;2023-01-28T09:51:33;99520.75;;;2.27;82.24
59531;BME280;45349;48.692;8.186;2023-01-28T09:54:05;99526.66;;;2.29;80.76
59531;BME280;45349;48.692;8.186;2023-01-28T09:56:41;99525.75;;;2.47;81.06
59531;BME280;45349;48.692;8.186;2023-01-28T09:59:16;99524.47;;;2.56;79.83
59531;BME280;45349;48.692;8.186;2023-01-28T10:01:49;99525.00;;;2.45;79.84
59531;BME280;45349;48.692;8.186;2023-01-28T10:04:26;99517.09;;;2.48;79.74
59531;BME280;45349;48.692;8.186;2023-01-28T10:07:03;99513.09;;;2.60;80.30
59531;BME280;45349;48.692;8.186;2023-01-28T10:09:44;99519.41;;;2.71;79.69
59531;BME280;45349;48.692;8.186;2023-01-28T10:12:25;99517.56;;;2.57;79.65
59531;BME280;45349;48.692;8.186;2023-01-28T10:15:09;99514.81;;;2.77;78.17
59531;BME280;45349;48.692;8.186;2023-01-28T10:17:42;99518.84;;;2.99;78.43
59531;BME280;45349;48.692;8.186;2023-01-28T10:20:18;99507.66;;;2.83;77.95
59531;BME280;45349;48.692;8.186;2023-01-28T10:22:49;99505.25;;;2.95;78.30
59531;BME280;45349;48.692;8.186;2023-01-28T10:25:22;99499.41;;;3.09;77.72
59531;BME280;45349;48.692;8.186;2023-01-28T10:27:50;99498.88;;;3.19;77.55
59531;BME280;45349;48.692;8.186;2023-01-28T10:30:18;99501.06;;;3.10;75.76
59531;BME280;45349;48.692;8.186;2023-01-28T10:32:50;99496.50;;;3.16;77.36
59531;BME280;45349;48.692;8.186;2023-01-28T10:35:17;99499.63;;;3.21;77.56
59531;BME280;45349;48.692;8.186;2023-01-28T10:37:44;99499.56;;;3.22;77.47
59531;BME280;45349;48.692;8.186;2023-01-28T10:40:13;99498.38;;;2.96;76.93
59531;BME280;45349;48.692;8.186;2023-01-28T10:42:42;99497.34;;;2.83;77.08
59531;BME280;45349;48.692;8.186;2023-01-28T10:45:16;99495.47;;;2.69;77.56
59531;BME280;45349;48.692;8.186;2023-01-28T10:47:47;99494.03;;;2.80;77.58
59531;BME280;45349;48.692;8.186;2023-01-28T10:50:19;99499.81;;;2.68;78.39
59531;BME280;45349;48.692;8.186;2023-01-28T10:52:54;99517.13;;;2.82;77.61
59531;BME280;45349;48.692;8.186;2023-01-28T10:55:21;99500.31;;;2.75;78.22
59531;BME280;45349;48.692;8.186;2023-01-28T10:57:50;99503.84;;;2.56;79.00
59531;BME280;45349;48.692;8.186;2023-01-28T11:00:22;99511.63;;;2.72;78.35
59531;BME280;45349;48.692;8.186;2023-01-28T11:02:50;99512.09;;;2.45;78.93
59531;BME280;45349;48.692;8.186;2023-01-28T11:05:18;99502.41;;;2.15;80.85
59531;BME280;45349;48.692;8.186;2023-01-28T11:07:45;99507.25;;;2.21;80.86
59531;BME280;45349;48.692;8.186;2023-01-28T11:10:33;99513.16;;;2.41;80.37
59531;BME280;45349;48.692;8.186;2023-01-28T11:13:03;99510.97;;;2.51;80.22
59531;BME280;45349;48.692;8.186;2023-01-28T11:15:30;99518.19;;;2.44;78.91
59531;BME280;45349;48.692;8.186;2023-01-28T11:17:59;99507.50;;;2.17;80.50
59531;BME280;45349;48.692;8.186;2023-01-28T11:20:28;99517.41;;;2.25;81.76
59531;BME280;45349;48.692;8.186;2023-01-28T11:22:57;99516.50;;;2.26;81.03
59531;BME280;45349;48.692;8.186;2023-01-28T11:25:27;99515.16;;;2.36;79.96
59531;BME280;45349;48.692;8.186;2023-01-28T11:27:55;99509.53;;;2.45;80.69
59531;BME280;45349;48.692;8.186;2023-01-28T11:30:25;99513.63;;;2.49;80.52
59531;BME280;45349;48.692;8.186;2023-01-28T11:32:56;99515.28;;;2.50;81.11
59531;BME280;45349;48.692;8.186;2023-01-28T11:35:25;99524.47;;;2.56;80.51
59531;BME280;45349;48.692;8.186;2023-01-28T11:37:54;99516.44;;;2.45;80.79
59531;BME280;45349;48.692;8.186;2023-01-28T11:40:21;99521.34;;;2.49;80.21
59531;BME280;45349;48.692;8.186;2023-01-28T11:42:49;99524.53;;;2.55;79.41
59531;BME280;45349;48.692;8.186;2023-01-28T11:45:18;99525.22;;;2.58;80.77
59531;BME280;45349;48.692;8.186;2023-01-28T11:47:56;99518.31;;;2.41;80.01
59531;BME280;45349;48.692;8.186;2023-01-28T11:50:34;99513.63;;;2.32;80.56
59531;BME280;45349;48.692;8.186;2023-01-28T11:53:16;99512.34;;;2.41;81.14
59531;BME280;45349;48.692;8.186;2023-01-28T11:55:53;99518.63;;;2.53;80.06
59531;BME280;45349;48.692;8.186;2023-01-28T11:58:31;99524.34;;;2.42;80.30
59531;BME280;45349;48.692;8.186;2023-01-28T12:01:08;99521.72;;;2.06;81.12
59531;BME280;45349;48.692;8.186;2023-01-28T12:03:56;99513.06;;;1.90;81.63
59531;BME280;45349;48.692;8.186;2023-01-28T12:06:41;99519.09;;;2.08;81.33
59531;BME280;45349;48.692;8.186;2023-01-28T12:09:20;99521.09;;;1.84;82.27
59531;BME280;45349;48.692;8.186;2023-01-28T12:12:04;99516.81;;;2.02;82.84
59531;BME280;45349;48.692;8.186;2023-01-28T12:15:04;99528.09;;;1.99;82.71
59531;BME280;45349;48.692;8.186;2023-01-28T12:17:41;99516.41;;;1.92;82.81
59531;BME280;45349;48.692;8.186;2023-01-28T12:20:17;99513.78;;;1.94;82.54
59531;BME280;45349;48.692;8.186;2023-01-28T12:22:58;99516.13;;;1.98;82.20
59531;BME280;45349;48.692;8.186;2023-01-28T12:25:38;99524.16;;;2.10;82.39
59531;BME280;45349;48.692;8.186;2023-01-28T12:28:17;99517.28;;;2.10;81.82
59531;BME280;45349;48.692;8.186;2023-01-28T12:31:00;99511.28;;;2.10;83.92
59531;BME280;45349;48.692;8.186;2023-01-28T12:33:49;99508.03;;;2.24;83.36
59531;BME280;45349;48.692;8.186;2023-01-28T12:36:32;99513.34;;;2.03;82.59
59531;BME280;45349;48.692;8.186;2023-01-28T12:39:11;99515.63;;;2.09;83.10
59531;BME280;45349;48.692;8.186;2023-01-28T12:41:46;99507.50;;;2.17;82.24
59531;BME280;45349;48.692;8.186;2023-01-28T12:44:20;99505.16;;;1.95;83.69
59531;BME280;45349;48.692;8.186;2023-01-28T12:46:52;99506.38;;;2.05;83.93
59531;BME280;45349;48.692;8.186;2023-01-28T12:49:22;99507.13;;;1.89;84.61
59531;BME280;45349;48.692;8.186;2023-01-28T12:51:58;99506.06;;;1.94;85.35
59531;BME280;45349;48.692;8.186;2023-01-28T12:54:33;99502.09;;;1.86;84.32
59531;BME280;45349;48.692;8.186;2023-01-28T12:57:01;99498.47;;;1.90;85.52
59531;BME280;45349;48.692;8.186;2023-01-28T12:59:31;99502.63;;;1.93;84.78
59531;BME280;45349;48.692;8.186;2023-01-28T13:02:16;99502.72;;;1.91;85.86
59531;BME280;45349;48.692;8.186;2023-01-28T13:04:50;99500.28;;;1.88;84.31
59531;BME280;45349;48.692;8.186;2023-01-28T13:07:25;99505.13;;;1.77;85.26
59531;BME280;45349;48.692;8.186;2023-01-28T13:09:57;99508.50;;;1.77;84.97
59531;BME280;45349;48.692;8.186;2023-01-28T13:12:27;99508.97;;;1.86;85.14
59531;BME280;45349;48.692;8.186;2023-01-28T13:14:54;99505.78;;;1.81;85.75
59531;BME280;45349;48.692;8.186;2023-01-28T13:17:26;99508.47;;;1.79;87.14
59531;BME280;45349;48.692;8.186;2023-01-28T13:19:53;99509.53;;;1.56;88.68
59531;BME280;45349;48.692;8.186;2023-01-28T13:22:30;99507.94;;;1.90;88.55
59531;BME280;45349;48.692;8.186;2023-01-28T13:25:11;99516.00;;;1.65;89.05
59531;BME280;45349;48.692;8.186;2023-01-28T13:27:41;99508.41;;;1.61;89.69
59531;BME280;45349;48.692;8.186;2023-01-28T13:30:22;99516.69;;;1.49;90.28
59531;BME280;45349;48.692;8.186;2023-01-28T13:32:55;99512.03;;;1.57;91.81
59531;BME280;45349;48.692;8.186;2023-01-28T13:35:30;99513.84;;;1.55;91.19
59531;BME280;45349;48.692;8.186;2023-01-28T13:38:05;99519.63;;;1.60;91.31
59531;BME280;45349;48.692;8.186;2023-01-28T13:40:33;99523.75;;;1.45;91.77
59531;BME280;45349;48.692;8.186;2023-01-28T13:43:02;99516.22;;;1.41;93.13